createdAt,value
2023-01-02T00:01:23.383Z,2.40
2023-01-02T00:03:55.100Z,2.17
2023-01-02T00:06:22.865Z,2.22
2023-01-02T00:08:50.161Z,2.20
2023-01-02T00:11:18.878Z,2.30
2023-01-02T00:13:45.703Z,2.80
2023-01-02T00:16:12.597Z,2.03
2023-01-02T00:18:39.554Z,2.45
2023-01-02T00:21:10.046Z,2.33
2023-01-02T00:23:37.777Z,2.30
2023-01-02T00:26:07.123Z,2.28
2023-01-02T00:28:35.593Z,2.15
2023-01-02T00:31:07.764Z,2.05
2023-01-02T00:36:06.110Z,1.95
2023-01-02T00:38:37.977Z,1.75
2023-01-02T00:41:05.821Z,1.73
2023-01-02T00:43:33.336Z,1.90
2023-01-02T00:46:00.405Z,1.90
2023-01-02T00:48:28.919Z,2.00
2023-01-02T00:50:55.909Z,1.73
2023-01-02T00:53:22.702Z,1.90
2023-01-02T00:55:51.401Z,1.67
2023-01-02T00:58:18.316Z,1.60
2023-01-02T01:00:45.422Z,1.73
2023-01-02T01:03:12.368Z,1.70
2023-01-02T01:05:40.291Z,1.40
2023-01-02T01:08:07.774Z,1.70
2023-01-02T01:10:37.087Z,1.70
2023-01-02T01:13:06.623Z,1.50
2023-01-02T01:15:34.473Z,1.42
2023-01-02T01:18:01.570Z,1.67
2023-01-02T01:20:28.458Z,1.38
2023-01-02T01:22:55.445Z,1.58
2023-01-02T01:25:22.690Z,1.50
2023-01-02T01:27:53.289Z,1.65
2023-01-02T01:30:21.564Z,1.55
2023-01-02T01:32:48.697Z,1.70
2023-01-02T01:35:15.923Z,1.50
2023-01-02T01:37:42.935Z,1.60
2023-01-02T01:40:10.630Z,1.58
2023-01-02T01:42:37.398Z,1.50
2023-01-02T01:45:14.176Z,1.58
2023-01-02T01:47:47.171Z,1.60
2023-01-02T01:50:21.913Z,1.77
2023-01-02T01:52:55.274Z,1.70
2023-01-02T01:55:28.668Z,1.83
2023-01-02T01:57:59.226Z,1.80
2023-01-02T02:00:26.122Z,1.60
2023-01-02T02:03:00.279Z,2.17
2023-01-02T02:05:30.795Z,1.77
2023-01-02T02:08:06.945Z,1.90
2023-01-02T02:10:33.828Z,2.05
2023-01-02T02:13:03.334Z,2.00
2023-01-02T02:15:45.825Z,2.10
2023-01-02T02:18:34.516Z,2.00
2023-01-02T02:24:41.560Z,2.25
2023-01-02T02:27:48.073Z,2.08
2023-01-02T02:30:19.630Z,2.42
2023-01-02T02:33:14.315Z,2.40
2023-01-02T02:36:00.751Z,2.33
2023-01-02T02:38:54.737Z,2.25
2023-01-02T02:41:33.634Z,2.60
2023-01-02T02:44:21.085Z,2.28
2023-01-02T02:46:58.542Z,2.42
2023-01-02T02:49:42.184Z,2.53
2023-01-02T02:52:21.000Z,2.33
2023-01-02T02:54:58.004Z,2.80
2023-01-02T02:57:26.325Z,2.13
2023-01-02T02:59:54.603Z,2.97
2023-01-02T03:02:23.661Z,2.50
2023-01-02T03:04:57.827Z,2.90
2023-01-02T03:07:31.992Z,2.67
2023-01-02T03:10:19.473Z,2.55
2023-01-02T03:12:59.532Z,2.90
2023-01-02T03:15:34.177Z,2.78
2023-01-02T03:18:18.019Z,3.05
2023-01-02T03:20:53.231Z,2.70
2023-01-02T03:23:26.745Z,2.53
2023-01-02T03:25:56.881Z,2.70
2023-01-02T03:28:26.875Z,2.83
2023-01-02T03:30:59.961Z,2.47
2023-01-02T03:33:34.042Z,3.17
2023-01-02T03:36:08.551Z,2.17
2023-01-02T03:38:43.873Z,2.80
2023-01-02T03:41:17.894Z,2.53
2023-01-02T03:43:56.328Z,2.42
2023-01-02T03:46:32.852Z,2.80
2023-01-02T03:49:08.381Z,2.20
2023-01-02T03:51:35.874Z,2.33
2023-01-02T03:54:06.029Z,2.38
2023-01-02T03:56:48.096Z,2.35
2023-01-02T03:59:25.961Z,2.20
2023-01-02T04:02:01.200Z,2.47
2023-01-02T04:04:45.415Z,2.17
2023-01-02T04:07:25.972Z,2.25
2023-01-02T04:09:53.466Z,2.45
2023-01-02T04:12:23.684Z,2.17
2023-01-02T04:14:55.781Z,2.30
2023-01-02T04:20:00.573Z,2.33
2023-01-02T04:22:33.595Z,2.03
2023-01-02T04:25:09.998Z,2.20
2023-01-02T04:27:44.616Z,2.13
2023-01-02T04:30:12.180Z,2.47
2023-01-02T04:32:44.613Z,2.50
2023-01-02T04:35:20.249Z,2.20
2023-01-02T04:37:48.204Z,2.50
2023-01-02T04:40:22.683Z,2.50
2023-01-02T04:42:51.718Z,2.72
2023-01-02T04:45:22.627Z,2.60
2023-01-02T04:47:50.711Z,2.58
2023-01-02T04:50:19.634Z,2.80
2023-01-02T04:52:50.250Z,2.60
2023-01-02T04:55:17.583Z,2.35
2023-01-02T04:57:44.885Z,2.22
2023-01-02T05:00:12.987Z,2.25
2023-01-02T05:02:40.560Z,2.60
2023-01-02T05:05:09.944Z,2.38
2023-01-02T05:07:38.581Z,2.78
2023-01-02T05:10:09.026Z,2.40
2023-01-02T05:12:36.893Z,2.53
2023-01-02T05:15:06.219Z,2.80
2023-01-02T05:17:35.093Z,2.40
2023-01-02T05:20:03.244Z,2.83
2023-01-02T05:22:30.297Z,2.28
2023-01-02T05:24:58.621Z,2.42
2023-01-02T05:27:25.448Z,2.60
2023-01-02T05:29:52.504Z,3.03
2023-01-02T05:32:19.359Z,2.33
2023-01-02T05:34:46.082Z,2.20
2023-01-02T05:37:12.889Z,2.13
2023-01-02T05:39:39.687Z,2.70
2023-01-02T05:42:08.385Z,2.22
2023-01-02T05:44:35.116Z,2.20
2023-01-02T05:47:02.172Z,2.30
2023-01-02T05:49:29.085Z,2.50
2023-01-02T05:51:55.836Z,2.20
2023-01-02T05:54:23.321Z,2.83
2023-01-02T05:56:50.120Z,2.40
2023-01-02T05:59:18.690Z,2.50
2023-01-02T06:01:45.895Z,2.50
2023-01-02T06:04:19.293Z,2.35
2023-01-02T06:06:47.229Z,2.00
2023-01-02T06:09:15.798Z,2.50
2023-01-02T06:11:43.907Z,2.45
2023-01-02T06:14:11.048Z,2.65
2023-01-02T06:16:40.124Z,2.85
2023-01-02T06:19:07.357Z,2.33
2023-01-02T06:21:34.489Z,2.38
2023-01-02T06:24:01.476Z,2.70
2023-01-02T06:26:34.510Z,2.92
2023-01-02T06:29:03.160Z,2.60
2023-01-02T06:31:30.416Z,2.33
2023-01-02T06:34:00.650Z,2.28
2023-01-02T06:36:31.748Z,2.15
2023-01-02T06:38:58.875Z,2.60
2023-01-02T06:41:26.271Z,2.47
2023-01-02T06:43:54.620Z,2.28
2023-01-02T06:46:23.911Z,2.20
2023-01-02T06:48:51.890Z,2.35
2023-01-02T06:51:23.006Z,2.75
2023-01-02T06:53:50.851Z,2.90
2023-01-02T06:56:20.559Z,2.58
2023-01-02T06:58:48.110Z,2.53
2023-01-02T07:01:18.209Z,2.20
2023-01-02T07:03:45.489Z,2.63
2023-01-02T07:06:15.385Z,2.40
2023-01-02T07:08:44.334Z,2.63
2023-01-02T07:11:14.433Z,2.70
2023-01-02T07:13:43.275Z,2.78
2023-01-02T07:16:13.469Z,3.08
2023-01-02T07:18:40.882Z,2.92
2023-01-02T07:21:09.865Z,2.45
2023-01-02T07:23:37.013Z,3.10
2023-01-02T07:26:07.141Z,2.97
2023-01-02T07:28:35.368Z,2.50
2023-01-02T07:31:05.635Z,2.80
2023-01-02T07:33:33.763Z,2.63
2023-01-02T07:36:03.581Z,2.47
2023-01-02T07:38:31.215Z,2.70
2023-01-02T07:40:58.750Z,3.35
2023-01-02T07:43:27.616Z,2.67
2023-01-02T07:45:54.622Z,3.03
2023-01-02T07:48:21.660Z,2.53
2023-01-02T07:50:48.508Z,2.65
2023-01-02T07:53:15.623Z,2.88
2023-01-02T07:55:42.613Z,3.25
2023-01-02T07:58:09.515Z,3.08
2023-01-02T08:00:37.804Z,3.22
2023-01-02T08:03:05.505Z,2.92
2023-01-02T08:05:33.892Z,3.53
2023-01-02T08:08:01.840Z,3.05
2023-01-02T08:10:28.735Z,3.13
2023-01-02T08:12:55.730Z,3.08
2023-01-02T08:15:22.788Z,3.22
2023-01-02T08:17:51.829Z,2.88
2023-01-02T08:20:18.713Z,2.70
2023-01-02T08:22:45.765Z,3.70
2023-01-02T08:25:12.596Z,2.83
2023-01-02T08:27:39.394Z,2.90
2023-01-02T08:30:07.845Z,3.10
2023-01-02T08:32:36.493Z,2.95
2023-01-02T08:35:07.390Z,2.65
2023-01-02T08:37:34.961Z,2.70
2023-01-02T08:40:02.559Z,2.78
2023-01-02T08:42:29.449Z,3.17
2023-01-02T08:44:56.433Z,2.67
2023-01-02T08:47:23.296Z,3.13
2023-01-02T08:49:50.189Z,2.65
2023-01-02T08:52:18.406Z,2.67
2023-01-02T08:54:47.165Z,2.90
2023-01-02T08:57:14.045Z,2.53
2023-01-02T08:59:40.822Z,2.65
2023-01-02T09:02:12.241Z,2.90
2023-01-02T09:04:39.443Z,2.90
2023-01-02T09:07:06.827Z,2.40
2023-01-02T09:09:35.156Z,2.67
2023-01-02T09:12:02.177Z,2.33
2023-01-02T09:14:29.029Z,2.63
2023-01-02T09:16:56.023Z,2.72
2023-01-02T09:19:23.961Z,2.92
2023-01-02T09:21:50.860Z,2.60
2023-01-02T09:24:20.452Z,2.83
2023-01-02T09:26:48.845Z,2.85
2023-01-02T09:29:15.774Z,2.88
2023-01-02T09:31:44.086Z,2.88
2023-01-02T09:34:12.191Z,2.83
2023-01-02T09:36:39.537Z,2.72
2023-01-02T09:39:08.819Z,2.63
2023-01-02T09:41:38.294Z,2.60
2023-01-02T09:44:15.824Z,2.70
2023-01-02T09:46:50.726Z,3.03
2023-01-02T09:49:23.913Z,2.60
2023-01-02T09:51:52.102Z,2.90
2023-01-02T09:54:24.972Z,3.08
2023-01-02T09:57:04.519Z,2.90
2023-01-02T09:59:43.503Z,2.90
2023-01-02T10:02:33.682Z,2.80
2023-01-02T10:05:22.736Z,2.50
2023-01-02T10:08:01.655Z,2.60
2023-01-02T10:10:37.977Z,2.80
2023-01-02T10:13:17.857Z,2.80
2023-01-02T10:15:50.351Z,2.50
2023-01-02T10:18:25.181Z,3.00
2023-01-02T10:20:58.486Z,2.40
2023-01-02T10:23:33.525Z,3.20
2023-01-02T10:26:06.549Z,3.05
2023-01-02T10:28:43.927Z,2.55
2023-01-02T10:31:20.135Z,2.67
2023-01-02T10:33:53.548Z,2.58
2023-01-02T10:36:25.680Z,2.35
2023-01-02T10:41:21.170Z,2.28
2023-01-02T10:43:55.620Z,2.00
2023-01-02T10:46:24.717Z,2.10
2023-01-02T10:48:52.339Z,2.40
2023-01-02T10:51:21.787Z,2.20
2023-01-02T10:54:01.174Z,1.75
2023-01-02T10:56:32.886Z,1.75
2023-01-02T10:59:00.907Z,1.67
2023-01-02T11:01:30.720Z,2.20
2023-01-02T11:04:13.107Z,1.90
2023-01-02T11:09:21.380Z,1.88
2023-01-02T11:11:54.712Z,2.00
2023-01-02T11:14:26.982Z,1.80
2023-01-02T11:17:03.983Z,2.00
2023-01-02T11:19:32.996Z,2.30
2023-01-02T11:21:59.996Z,1.80
2023-01-02T11:24:27.036Z,1.90
2023-01-02T11:26:54.896Z,1.90
2023-01-02T11:29:30.476Z,1.65
2023-01-02T11:32:03.651Z,1.70
2023-01-02T11:34:36.443Z,1.50
2023-01-02T11:37:15.587Z,1.20
2023-01-02T11:39:56.510Z,0.88
2023-01-02T11:42:33.243Z,0.60
2023-01-02T11:45:07.530Z,0.60
2023-01-02T11:47:41.924Z,0.70
2023-01-02T11:50:23.578Z,0.50
2023-01-02T11:52:59.018Z,0.40
2023-01-02T11:58:43.776Z,0.50
2023-01-02T12:01:22.022Z,0.77
2023-01-02T12:03:50.742Z,0.88
2023-01-02T12:06:21.626Z,0.80
2023-01-02T12:09:04.892Z,0.90
2023-01-02T12:11:51.661Z,1.20
2023-01-02T12:14:22.529Z,1.20
2023-01-02T12:16:58.773Z,1.20
2023-01-02T12:20:06.355Z,1.10
2023-01-02T12:23:26.592Z,1.15
2023-01-02T12:26:10.552Z,1.30
2023-01-02T12:29:09.988Z,0.90
2023-01-02T12:32:07.585Z,1.30
2023-01-02T12:34:59.503Z,1.15
2023-01-02T12:37:46.267Z,1.10
2023-01-02T12:43:49.525Z,0.90
2023-01-02T12:49:37.423Z,0.50
2023-01-02T12:52:22.483Z,0.50
2023-01-02T12:55:07.455Z,0.30
2023-01-02T12:57:47.077Z,0.90
2023-01-02T13:00:54.611Z,0.60
2023-01-02T13:03:55.768Z,0.50
2023-01-02T13:06:44.907Z,0.50
2023-01-02T13:09:25.087Z,0.50
2023-01-02T13:12:04.569Z,0.93
2023-01-02T13:14:45.883Z,0.50
2023-01-02T13:17:41.541Z,0.50
2023-01-02T13:20:28.463Z,0.40
2023-01-02T13:23:29.639Z,0.40
2023-01-02T13:26:03.568Z,0.60
2023-01-02T13:28:30.696Z,0.55
2023-01-02T13:31:44.333Z,0.70
2023-01-02T13:33:55.842Z,0.40
2023-01-02T13:36:27.848Z,0.40
2023-01-02T13:39:00.352Z,0.57
2023-01-02T13:41:32.293Z,0.30
2023-01-02T13:44:02.873Z,0.50
2023-01-02T13:47:02.693Z,0.40
2023-01-02T13:49:28.096Z,0.57
2023-01-02T13:51:59.395Z,0.40
2023-01-02T13:57:35.004Z,0.40
2023-01-02T14:00:36.390Z,0.50
2023-01-02T14:03:34.141Z,0.40
2023-01-02T14:06:03.526Z,0.30
2023-01-02T14:08:33.858Z,0.50
2023-01-02T14:11:10.502Z,0.43
2023-01-02T14:13:46.042Z,0.50
2023-01-02T14:16:43.508Z,0.40
2023-01-02T14:19:34.838Z,0.50
2023-01-02T14:22:11.160Z,1.02
2023-01-02T14:24:42.932Z,0.60
2023-01-02T14:27:24.828Z,0.50
2023-01-02T14:29:57.062Z,0.60
2023-01-02T14:35:07.115Z,0.32
2023-01-02T14:37:40.609Z,0.40
2023-01-02T14:40:18.321Z,0.47
2023-01-02T14:42:49.439Z,0.50
2023-01-02T14:45:21.821Z,0.60
2023-01-02T14:48:02.031Z,0.63
2023-01-02T14:50:34.386Z,0.68
2023-01-02T14:53:09.928Z,0.60
2023-01-02T14:55:42.657Z,0.63
2023-01-02T14:58:23.643Z,0.68
2023-01-02T15:00:57.783Z,0.68
2023-01-02T15:04:05.642Z,0.60
2023-01-02T15:06:39.318Z,0.43
2023-01-02T15:09:15.766Z,0.47
2023-01-02T15:11:53.497Z,0.60
2023-01-02T15:14:23.833Z,0.50
2023-01-02T15:17:00.643Z,0.57
2023-01-02T15:19:32.869Z,0.60
2023-01-02T15:22:13.516Z,0.65
2023-01-02T15:24:48.675Z,0.70
2023-01-02T15:27:23.978Z,0.63
2023-01-02T15:29:53.870Z,0.50
2023-01-02T15:32:24.601Z,0.63
2023-01-02T15:34:52.485Z,0.60
2023-01-02T15:37:24.732Z,0.43
2023-01-02T15:42:25.633Z,0.73
2023-01-02T15:47:27.799Z,0.50
2023-01-02T15:49:57.456Z,0.40
2023-01-02T15:52:34.558Z,0.75
2023-01-02T15:55:03.207Z,0.55
2023-01-02T15:57:31.554Z,1.60
2023-01-02T15:59:58.493Z,1.83
2023-01-02T16:02:41.002Z,1.40
2023-01-02T16:05:17.035Z,1.40
2023-01-02T16:07:51.717Z,1.20
2023-01-02T16:10:22.700Z,1.20
2023-01-02T16:12:55.870Z,1.30
2023-01-02T16:15:29.090Z,1.20
2023-01-02T16:17:58.011Z,1.00
2023-01-02T16:20:27.865Z,0.93
2023-01-02T16:23:02.071Z,1.15
2023-01-02T16:25:32.035Z,0.90
2023-01-02T16:28:04.515Z,0.90
2023-01-02T16:31:08.252Z,1.10
2023-01-02T16:33:37.684Z,1.08
2023-01-02T16:36:17.769Z,0.85
2023-01-02T16:38:51.782Z,0.98
2023-01-02T16:41:56.915Z,0.88
2023-01-02T16:44:24.143Z,1.00
2023-01-02T16:46:52.195Z,1.05
2023-01-02T16:49:23.287Z,1.33
2023-01-02T16:51:53.448Z,1.20
2023-01-02T16:54:20.727Z,1.20
2023-01-02T16:56:48.766Z,1.20
2023-01-02T16:59:16.026Z,1.23
2023-01-02T17:01:43.203Z,1.00
2023-01-02T17:04:11.830Z,1.40
2023-01-02T17:06:40.546Z,1.70
2023-01-02T17:09:07.312Z,1.40
2023-01-02T17:11:36.887Z,1.40
2023-01-02T17:14:03.711Z,1.08
2023-01-02T17:16:30.721Z,1.35
2023-01-02T17:18:57.783Z,1.05
2023-01-02T17:24:18.122Z,1.05
2023-01-02T17:26:45.495Z,0.80
2023-01-02T17:29:12.783Z,1.30
2023-01-02T17:31:39.926Z,1.17
2023-01-02T17:34:06.962Z,1.27
2023-01-02T17:36:34.479Z,1.27
2023-01-02T17:39:01.632Z,1.42
2023-01-02T17:41:29.932Z,1.40
2023-01-02T17:44:01.639Z,1.35
2023-01-02T17:47:04.573Z,1.55
2023-01-02T17:49:17.016Z,1.75
2023-01-02T17:51:43.784Z,1.33
2023-01-02T17:54:13.088Z,1.13
2023-01-02T17:56:43.433Z,1.20
2023-01-02T17:59:10.241Z,1.23
2023-01-02T18:01:37.332Z,1.30
2023-01-02T18:04:04.498Z,1.10
2023-01-02T18:06:32.786Z,1.10
2023-01-02T18:08:59.559Z,1.15
2023-01-02T18:11:26.506Z,0.90
2023-01-02T18:16:42.081Z,1.23
2023-01-02T18:19:14.121Z,1.05
2023-01-02T18:21:43.497Z,1.02
2023-01-02T18:24:13.976Z,1.10
2023-01-02T18:26:41.148Z,1.10
2023-01-02T18:29:21.408Z,1.20
2023-01-02T18:31:49.391Z,1.20
2023-01-02T18:34:46.583Z,1.02
2023-01-02T18:37:19.552Z,1.20
2023-01-02T18:39:46.789Z,1.13
2023-01-02T18:42:18.880Z,1.10
2023-01-02T18:44:49.226Z,1.30
2023-01-02T18:47:26.481Z,1.60
2023-01-02T18:49:56.501Z,2.20
2023-01-02T18:52:27.456Z,1.50
2023-01-02T18:55:24.344Z,1.55
2023-01-02T18:58:01.444Z,1.17
2023-01-02T19:00:33.298Z,1.15
2023-01-02T19:03:03.569Z,1.13
2023-01-02T19:05:33.447Z,3.58
2023-01-02T19:08:15.608Z,2.10
2023-01-02T19:10:46.316Z,1.70
2023-01-02T19:13:18.671Z,1.73
2023-01-02T19:18:25.518Z,1.65
2023-01-02T19:20:59.156Z,1.80
2023-01-02T19:23:31.250Z,2.40
2023-01-02T19:26:16.976Z,1.92
2023-01-02T19:28:57.521Z,2.53
2023-01-02T19:31:30.215Z,1.73
2023-01-02T19:34:03.194Z,2.30
2023-01-02T19:36:35.557Z,1.67
2023-01-02T19:41:49.630Z,2.45
2023-01-02T19:44:16.494Z,2.20
2023-01-02T19:46:44.639Z,1.77
2023-01-02T19:49:12.601Z,2.00
2023-01-02T19:51:39.541Z,3.25
2023-01-02T19:54:06.456Z,2.00
2023-01-02T19:56:33.417Z,1.77
2023-01-02T19:59:00.382Z,1.40
2023-01-02T20:01:27.476Z,2.20
2023-01-02T20:03:55.699Z,2.70
2023-01-02T20:06:22.531Z,1.90
2023-01-02T20:08:49.391Z,2.03
2023-01-02T20:11:18.684Z,1.55
2023-01-02T20:13:45.642Z,1.60
2023-01-02T20:16:12.470Z,1.90
2023-01-02T20:18:39.231Z,1.95
2023-01-02T20:21:07.613Z,1.60
2023-01-02T20:23:35.566Z,1.58
2023-01-02T20:26:03.351Z,1.85
2023-01-02T20:28:30.310Z,1.60
2023-01-02T20:30:57.076Z,1.38
2023-01-02T20:33:24.543Z,1.35
2023-01-02T20:35:51.475Z,1.77
2023-01-02T20:38:19.749Z,1.38
2023-01-02T20:40:46.658Z,1.42
2023-01-02T20:43:13.799Z,1.58
2023-01-02T20:45:40.625Z,1.33
2023-01-02T20:48:07.426Z,1.40
2023-01-02T20:50:35.780Z,1.40
2023-01-02T20:53:02.719Z,1.65
2023-01-02T20:55:30.974Z,1.23
2023-01-02T20:57:58.330Z,1.67
2023-01-02T21:00:25.360Z,1.42
2023-01-02T21:02:52.833Z,1.40
2023-01-02T21:05:19.816Z,1.60
2023-01-02T21:07:46.888Z,1.50
2023-01-02T21:10:13.936Z,1.25
2023-01-02T21:12:42.088Z,1.38
2023-01-02T21:15:09.471Z,1.90
2023-01-02T21:17:36.295Z,1.55
2023-01-02T21:20:03.217Z,1.25
2023-01-02T21:22:30.468Z,1.48
2023-01-02T21:24:57.314Z,1.70
2023-01-02T21:27:24.909Z,1.50
2023-01-02T21:29:53.028Z,1.60
2023-01-02T21:32:19.816Z,1.40
2023-01-02T21:34:46.942Z,1.40
2023-01-02T21:37:14.799Z,1.55
2023-01-02T21:39:43.202Z,1.60
2023-01-02T21:42:10.138Z,1.70
2023-01-02T21:44:37.645Z,1.40
2023-01-02T21:47:06.362Z,1.50
2023-01-02T21:49:33.354Z,1.55
2023-01-02T21:52:01.842Z,1.42
2023-01-02T21:54:28.745Z,1.40
2023-01-02T21:56:56.335Z,1.50
2023-01-02T21:59:27.795Z,1.40
2023-01-02T22:01:56.852Z,1.48
2023-01-02T22:04:27.354Z,1.30
2023-01-02T22:09:41.684Z,1.05
2023-01-02T22:12:11.279Z,1.38
2023-01-02T22:14:39.523Z,1.25
2023-01-02T22:17:10.842Z,1.55
2023-01-02T22:19:39.301Z,1.60
2023-01-02T22:22:08.272Z,1.30
2023-01-02T22:24:44.495Z,1.10
2023-01-02T22:27:14.230Z,1.30
2023-01-02T22:30:18.989Z,1.65
2023-01-02T22:32:31.641Z,1.33
2023-01-02T22:35:03.216Z,1.45
2023-01-02T22:37:30.353Z,1.40
2023-01-02T22:39:57.892Z,1.35
2023-01-02T22:42:59.022Z,1.27
2023-01-02T22:45:22.461Z,1.48
2023-01-02T22:47:50.224Z,1.63
2023-01-02T22:50:23.139Z,1.40
2023-01-02T22:52:50.768Z,1.35
2023-01-02T22:55:20.691Z,1.40
2023-01-02T22:57:51.417Z,1.17
2023-01-02T23:00:22.428Z,1.48
2023-01-02T23:02:50.029Z,1.30
2023-01-02T23:05:20.912Z,1.35
2023-01-02T23:07:48.284Z,1.35
2023-01-02T23:10:16.056Z,1.27
2023-01-02T23:12:45.168Z,1.35
2023-01-02T23:15:14.411Z,1.42
2023-01-02T23:17:44.895Z,1.58
2023-01-02T23:20:14.257Z,1.65
2023-01-02T23:22:42.430Z,1.75
2023-01-02T23:25:09.687Z,1.90
2023-01-02T23:27:36.926Z,1.40
2023-01-02T23:30:09.876Z,1.52
2023-01-02T23:32:41.349Z,1.70
2023-01-02T23:35:11.277Z,1.40
2023-01-02T23:37:38.768Z,1.63
2023-01-02T23:40:09.610Z,1.40
2023-01-02T23:42:37.206Z,1.33
2023-01-02T23:45:04.809Z,1.52
2023-01-02T23:47:31.772Z,1.50
2023-01-02T23:49:58.521Z,1.70
2023-01-02T23:52:25.309Z,1.50
2023-01-02T23:54:53.360Z,1.55
2023-01-02T23:57:26.591Z,1.60
2023-01-02T23:59:53.817Z,1.30
